Skip Navigation LinksHome page > Weather > Current weather Skip Navigation Links

Current Weather

Indira Gandhi Intl Apt, New Delhi, India

For information only: do not use for flight planning or navigation.
Latest weather
Observation time Sunday, March 29, 2015 8:00 AM IST
Local time Sunday, March 29, 2015 8:35 AM IST
Flight conditions Instrument Meteorological Conditions
Winds
Wind direction East-Northeast (60°)
Wind speed 7 mph
Visibility 1.6 mi.
Present weather haze
Sky condition
Ceiling unlimited
Cloud layer few clouds 3,500 ft.
Cloud layer few clouds with cumulonimbus 4,000 ft.
Cloud layer scattered clouds 10,000 ft.
Temperature 79°F
Dewpoint 48°F
Altimeter 29.83 in.Hg
Derived measurements
Relative humidity 34%
Heat index 79°F
Density altitude 2310 ft.
METAR VIDP 290230Z 06006KT 2500 HZ FEW035 FEW040CB SCT100 26/09 Q1010 TEMPO 27025KT 1500 TSRA

Settings

Location code

InnerDrive.Weather 4.0.5505.0 Release CLR 4.0.30319.34014
Copyright ©2015 Inner Drive Technology. All rights reserved. Portions Copyright ©1986-2015 David Braverman.

Find weather

Site navigation


Skip Navigation Links

Place info

Page info

PayPal - The safer, easier way to pay online!

Return home.

Copyright ©2015 Inner Drive Technology. Purveyors of fine, hand-crafted computer software. Page printed 2015-03-29T03:05:01 UTC.